createdAt,value
2022-08-11T00:00:01.356Z,19.99
2022-08-11T00:03:11.640Z,19.96
2022-08-11T00:06:05.536Z,19.92
2022-08-11T00:08:43.475Z,19.89
2022-08-11T00:11:26.940Z,19.85
2022-08-11T00:14:24.618Z,19.83
2022-08-11T00:17:19.200Z,19.78
2022-08-11T00:20:17.233Z,19.73
2022-08-11T00:23:10.656Z,19.70
2022-08-11T00:25:52.546Z,19.65
2022-08-11T00:28:40.490Z,19.62
2022-08-11T00:31:39.690Z,19.58
2022-08-11T00:34:36.666Z,19.54
2022-08-11T00:37:32.506Z,19.49
2022-08-11T00:40:18.716Z,19.43
2022-08-11T00:43:20.507Z,19.40
2022-08-11T00:46:23.536Z,19.36
2022-08-11T00:49:21.085Z,19.33
2022-08-11T00:52:15.632Z,19.28
2022-08-11T00:55:07.811Z,19.25
2022-08-11T00:57:52.691Z,19.18
2022-08-11T01:00:40.466Z,19.17
2022-08-11T01:03:37.677Z,19.15
2022-08-11T01:06:55.490Z,19.11
2022-08-11T01:10:19.421Z,19.07
2022-08-11T01:13:40.958Z,19.03
2022-08-11T01:16:42.687Z,19.00
2022-08-11T01:20:46.043Z,18.98
2022-08-11T01:22:52.749Z,18.96
2022-08-11T01:26:08.645Z,18.98
2022-08-11T01:28:58.556Z,18.98
2022-08-11T01:32:00.520Z,18.99
2022-08-11T01:35:04.854Z,19.01
2022-08-11T01:38:18.219Z,19.01
2022-08-11T01:42:00.259Z,19.01
2022-08-11T01:45:03.740Z,18.99
2022-08-11T01:48:08.621Z,18.97
2022-08-11T01:51:09.595Z,18.95
2022-08-11T01:54:12.621Z,18.91
2022-08-11T01:57:08.813Z,18.87
2022-08-11T02:00:00.628Z,18.84
2022-08-11T02:02:56.556Z,18.78
2022-08-11T02:05:50.572Z,18.76
2022-08-11T02:08:50.694Z,18.72
2022-08-11T02:11:46.538Z,18.67
2022-08-11T02:14:41.676Z,18.61
2022-08-11T02:17:55.592Z,18.61
2022-08-11T02:20:58.111Z,18.57
2022-08-11T02:24:05.344Z,18.54
2022-08-11T02:27:12.669Z,18.49
2022-08-11T02:30:08.668Z,18.47
2022-08-11T02:33:18.927Z,18.42
2022-08-11T02:36:13.617Z,18.38
2022-08-11T02:39:10.607Z,18.34
2022-08-11T02:42:31.988Z,18.31
2022-08-11T02:45:47.157Z,18.27
2022-08-11T02:48:51.308Z,18.23
2022-08-11T02:51:43.654Z,18.19
2022-08-11T02:54:46.586Z,18.16
2022-08-11T02:57:48.805Z,18.13
2022-08-11T03:00:46.048Z,18.14
2022-08-11T03:03:40.394Z,18.13
2022-08-11T03:06:34.321Z,18.09
2022-08-11T03:09:16.067Z,18.09
2022-08-11T03:12:27.628Z,18.08
2022-08-11T03:15:30.759Z,18.08
2022-08-11T03:18:27.209Z,18.07
2022-08-11T03:22:01.577Z,18.06
2022-08-11T03:25:12.757Z,18.04
2022-08-11T03:28:07.703Z,18.01
2022-08-11T03:30:48.584Z,17.99
2022-08-11T03:34:05.631Z,17.96
2022-08-11T03:37:45.587Z,17.93
2022-08-11T03:40:59.792Z,17.88
2022-08-11T03:44:43.289Z,17.84
2022-08-11T03:47:57.730Z,17.79
2022-08-11T03:51:07.474Z,17.75
2022-08-11T03:54:01.533Z,17.71
2022-08-11T03:57:00.963Z,17.66
2022-08-11T03:59:48.594Z,17.63
2022-08-11T04:03:05.378Z,17.60
2022-08-11T04:06:27.901Z,17.57
2022-08-11T04:09:34.577Z,17.58
2022-08-11T04:12:49.408Z,17.58
2022-08-11T04:16:12.366Z,17.58
2022-08-11T04:19:05.402Z,17.59
2022-08-11T04:22:02.636Z,17.60
2022-08-11T04:24:50.485Z,17.63
2022-08-11T04:27:54.316Z,17.60
2022-08-11T04:34:02.515Z,17.58
2022-08-11T04:37:22.566Z,17.54
2022-08-11T04:40:44.326Z,17.47
2022-08-11T04:44:05.563Z,17.40
2022-08-11T04:47:03.442Z,17.35
2022-08-11T04:50:16.653Z,17.33
2022-08-11T04:53:22.272Z,17.36
2022-08-11T04:56:45.687Z,17.36
2022-08-11T05:00:03.735Z,17.38
2022-08-11T05:03:12.323Z,17.41
2022-08-11T05:06:21.467Z,17.42
2022-08-11T05:09:46.445Z,17.39
2022-08-11T05:12:55.577Z,17.39
2022-08-11T05:16:09.807Z,17.38
2022-08-11T05:19:20.676Z,17.38
2022-08-11T05:22:30.089Z,17.41
2022-08-11T05:26:43.310Z,17.44
2022-08-11T05:29:19.311Z,17.47
2022-08-11T05:32:31.480Z,17.50
2022-08-11T05:36:01.223Z,17.52
2022-08-11T05:38:46.782Z,17.53
2022-08-11T05:41:50.393Z,17.54
2022-08-11T05:45:01.445Z,17.54
2022-08-11T05:48:04.339Z,17.57
2022-08-11T05:51:00.733Z,17.58
2022-08-11T05:54:28.682Z,17.62
2022-08-11T05:57:48.589Z,17.67
2022-08-11T06:00:50.674Z,17.71
2022-08-11T06:03:58.536Z,17.74
2022-08-11T06:07:06.789Z,17.79
2022-08-11T06:09:57.964Z,17.83
2022-08-11T06:12:49.415Z,17.88
2022-08-11T06:15:41.513Z,17.94
2022-08-11T06:18:39.286Z,18.01
2022-08-11T06:21:20.824Z,18.08
2022-08-11T06:23:59.771Z,18.14
2022-08-11T06:26:55.150Z,18.21
2022-08-11T06:29:38.013Z,18.31
2022-08-11T06:32:20.225Z,18.44
2022-08-11T06:35:21.124Z,18.56
2022-08-11T06:37:59.126Z,18.72
2022-08-11T06:40:43.825Z,18.87
2022-08-11T06:43:33.180Z,19.06
2022-08-11T06:46:12.002Z,19.25
2022-08-11T06:49:02.892Z,19.44
2022-08-11T06:51:41.811Z,19.62
2022-08-11T06:54:17.012Z,19.80
2022-08-11T06:57:28.868Z,19.97
2022-08-11T07:00:29.688Z,20.17
2022-08-11T07:03:10.337Z,20.35
2022-08-11T07:05:54.125Z,20.52
2022-08-11T07:08:54.289Z,20.67
2022-08-11T07:12:13.513Z,20.86
2022-08-11T07:16:10.451Z,21.05
2022-08-11T07:19:06.596Z,21.29
2022-08-11T07:22:03.765Z,21.49
2022-08-11T07:25:02.466Z,21.67
2022-08-11T07:28:03.827Z,21.84
2022-08-11T07:30:41.530Z,22.03
2022-08-11T07:34:05.844Z,22.18
2022-08-11T07:36:07.242Z,22.31
2022-08-11T07:38:47.641Z,22.43
2022-08-11T07:41:22.052Z,22.57
2022-08-11T07:43:57.176Z,22.69
2022-08-11T07:46:45.002Z,22.81
2022-08-11T07:49:32.834Z,22.97
2022-08-11T07:52:31.091Z,23.13
2022-08-11T07:55:50.919Z,23.29
2022-08-11T07:58:45.179Z,23.45
2022-08-11T08:04:56.778Z,23.73
2022-08-11T08:07:44.514Z,23.87
2022-08-11T08:10:38.298Z,24.00
2022-08-11T08:13:29.041Z,24.14
2022-08-11T08:16:31.360Z,24.26
2022-08-11T08:19:02.289Z,24.34
2022-08-11T08:21:33.007Z,24.42
2022-08-11T08:24:05.601Z,24.54
2022-08-11T08:26:57.188Z,24.67
2022-08-11T08:29:47.562Z,24.80
2022-08-11T08:32:22.466Z,24.91
2022-08-11T08:34:53.605Z,25.02
2022-08-11T08:37:45.420Z,25.14
2022-08-11T08:40:23.593Z,25.29
2022-08-11T08:43:00.384Z,25.38
2022-08-11T08:45:38.839Z,25.48
2022-08-11T08:48:17.594Z,25.57
2022-08-11T08:51:58.627Z,25.66
2022-08-11T08:54:38.894Z,25.80
2022-08-11T08:57:12.432Z,25.91
2022-08-11T08:59:48.709Z,26.00
2022-08-11T09:02:39.404Z,26.09
2022-08-11T09:05:11.248Z,26.20
2022-08-11T09:07:43.764Z,26.20
2022-08-11T09:10:18.070Z,26.10
2022-08-11T09:12:49.838Z,25.97
2022-08-11T09:15:22.770Z,26.00
2022-08-11T09:18:20.025Z,26.10
2022-08-11T09:20:54.947Z,26.22
2022-08-11T09:27:02.924Z,26.43
2022-08-11T09:29:38.175Z,26.56
2022-08-11T09:32:11.994Z,26.68
2022-08-11T09:34:46.798Z,26.81
2022-08-11T09:37:54.095Z,26.94
2022-08-11T09:40:30.937Z,27.07
2022-08-11T09:43:22.836Z,27.15
2022-08-11T09:45:59.511Z,27.26
2022-08-11T09:48:33.863Z,27.42
2022-08-11T09:51:07.589Z,27.54
2022-08-11T09:53:42.024Z,27.47
2022-08-11T09:56:50.849Z,27.51
2022-08-11T09:59:24.374Z,27.64
2022-08-11T10:02:00.985Z,27.76
2022-08-11T10:04:43.281Z,27.68
2022-08-11T10:07:17.229Z,27.49
2022-08-11T10:10:23.205Z,27.40
2022-08-11T10:14:31.582Z,27.33
2022-08-11T10:16:15.071Z,27.43
2022-08-11T10:18:53.608Z,27.54
2022-08-11T10:21:35.052Z,27.44
2022-08-11T10:24:25.424Z,27.39
2022-08-11T10:27:00.301Z,27.49
2022-08-11T10:29:55.693Z,27.64
2022-08-11T10:32:57.283Z,27.78
2022-08-11T10:35:32.699Z,27.94
2022-08-11T10:38:06.849Z,28.08
2022-08-11T10:40:42.891Z,28.11
2022-08-11T10:43:59.843Z,27.94
2022-08-11T10:46:29.748Z,27.73
2022-08-11T10:49:02.841Z,27.53
2022-08-11T10:51:53.832Z,27.37
2022-08-11T10:54:42.809Z,27.21
2022-08-11T10:57:33.778Z,27.12
2022-08-11T11:00:06.725Z,27.12
2022-08-11T11:02:37.975Z,27.11
2022-08-11T11:05:31.365Z,27.25
2022-08-11T11:08:30.711Z,27.45
2022-08-11T11:11:03.666Z,27.53
2022-08-11T11:13:57.336Z,27.59
2022-08-11T11:16:43.338Z,27.56
2022-08-11T11:19:19.695Z,27.47
2022-08-11T11:21:53.583Z,27.44
2022-08-11T11:24:37.874Z,27.33
2022-08-11T11:27:23.351Z,27.19
2022-08-11T11:30:09.538Z,27.09
2022-08-11T11:33:21.959Z,27.00
2022-08-11T11:36:13.043Z,26.96
2022-08-11T11:38:44.675Z,27.10
2022-08-11T11:41:27.603Z,27.28
2022-08-11T11:44:01.460Z,27.43
2022-08-11T11:46:38.897Z,27.54
2022-08-11T11:49:15.852Z,27.59
2022-08-11T11:51:54.154Z,27.49
2022-08-11T11:54:28.466Z,27.34
2022-08-11T11:57:22.914Z,27.21
2022-08-11T12:00:12.510Z,27.17
2022-08-11T12:02:44.068Z,27.28
2022-08-11T12:05:15.200Z,27.45
2022-08-11T12:08:05.237Z,27.65
2022-08-11T12:11:21.252Z,27.84
2022-08-11T12:13:54.296Z,28.06
2022-08-11T12:16:33.871Z,28.23
2022-08-11T12:19:10.921Z,28.35
2022-08-11T12:22:03.998Z,28.46
2022-08-11T12:24:54.393Z,28.57
2022-08-11T12:27:27.334Z,28.65
2022-08-11T12:30:06.364Z,28.72
2022-08-11T12:32:40.661Z,28.78
2022-08-11T12:35:13.047Z,28.85
2022-08-11T12:37:49.278Z,28.93
2022-08-11T12:41:03.507Z,28.95
2022-08-11T12:43:56.863Z,28.92
2022-08-11T12:46:33.538Z,28.98
2022-08-11T12:49:31.671Z,29.02
2022-08-11T12:52:15.768Z,29.08
2022-08-11T12:54:52.404Z,29.15
2022-08-11T12:58:06.756Z,29.19
2022-08-11T13:00:54.611Z,29.21
2022-08-11T13:03:43.780Z,29.28
2022-08-11T13:06:26.348Z,29.29
2022-08-11T13:09:01.515Z,29.26
2022-08-11T13:11:55.662Z,29.17
2022-08-11T13:14:31.580Z,28.96
2022-08-11T13:17:20.119Z,28.83
2022-08-11T13:19:52.357Z,28.76
2022-08-11T13:22:24.990Z,28.71
2022-08-11T13:24:57.029Z,28.58
2022-08-11T13:27:28.074Z,28.48
2022-08-11T13:30:12.606Z,28.43
2022-08-11T13:32:48.054Z,28.39
2022-08-11T13:35:20.454Z,28.32
2022-08-11T13:38:19.038Z,28.22
2022-08-11T13:40:55.826Z,28.15
2022-08-11T13:43:29.436Z,28.04
2022-08-11T13:46:23.237Z,27.94
2022-08-11T13:49:33.173Z,27.86
2022-08-11T13:52:24.152Z,27.79
2022-08-11T13:55:45.053Z,27.73
2022-08-11T13:59:05.987Z,27.68
2022-08-11T14:02:21.569Z,27.62
2022-08-11T14:05:27.253Z,27.56
2022-08-11T14:08:06.578Z,27.52
2022-08-11T14:12:19.989Z,27.48
2022-08-11T14:14:14.178Z,27.43
2022-08-11T14:16:52.996Z,27.37
2022-08-11T14:19:30.417Z,27.34
2022-08-11T14:22:12.277Z,27.28
2022-08-11T14:25:03.124Z,27.26
2022-08-11T14:28:30.424Z,27.23
2022-08-11T14:31:04.443Z,27.20
2022-08-11T14:33:58.872Z,27.12
2022-08-11T14:37:29.603Z,27.00
2022-08-11T14:40:35.930Z,26.89
2022-08-11T14:44:13.992Z,26.80
2022-08-11T14:47:23.021Z,26.72
2022-08-11T14:50:27.872Z,26.68
2022-08-11T14:53:20.296Z,26.66
2022-08-11T14:56:39.286Z,26.63
2022-08-11T14:59:45.131Z,26.61
2022-08-11T15:06:14.407Z,26.56
2022-08-11T15:09:17.284Z,26.49
2022-08-11T15:12:32.640Z,26.48
2022-08-11T15:16:05.632Z,26.45
2022-08-11T15:18:51.050Z,26.41
2022-08-11T15:21:39.450Z,26.40
2022-08-11T15:24:31.546Z,26.39
2022-08-11T15:27:43.757Z,26.36
2022-08-11T15:30:45.061Z,26.34
2022-08-11T15:33:58.436Z,26.31
2022-08-11T15:36:52.164Z,26.28
2022-08-11T15:40:31.300Z,26.27
2022-08-11T15:43:57.599Z,26.28
2022-08-11T15:47:04.634Z,26.28
2022-08-11T15:50:10.430Z,26.30
2022-08-11T15:52:55.693Z,26.31
2022-08-11T15:55:33.160Z,26.33
2022-08-11T15:58:35.163Z,26.34
2022-08-11T16:01:45.367Z,26.34
2022-08-11T16:04:27.872Z,26.35
2022-08-11T16:07:12.962Z,26.33
2022-08-11T16:10:09.449Z,26.33
2022-08-11T16:13:22.102Z,26.29
2022-08-11T16:16:16.275Z,26.25
2022-08-11T16:19:26.922Z,26.20
2022-08-11T16:22:01.992Z,26.17
2022-08-11T16:27:04.683Z,26.13
2022-08-11T16:27:26.603Z,26.09
2022-08-11T16:30:08.746Z,26.06
2022-08-11T16:32:54.088Z,26.02
2022-08-11T16:36:04.377Z,25.96
2022-08-11T16:38:50.355Z,25.90
2022-08-11T16:41:54.400Z,25.86
2022-08-11T16:44:53.414Z,25.82
2022-08-11T16:48:02.927Z,25.76
2022-08-11T16:50:57.349Z,25.69
2022-08-11T16:53:54.944Z,25.62
2022-08-11T16:56:52.950Z,25.58
2022-08-11T16:59:40.897Z,25.53
2022-08-11T17:02:52.330Z,25.48
2022-08-11T17:05:54.716Z,25.43
2022-08-11T17:09:00.602Z,25.39
2022-08-11T17:12:13.479Z,25.33
2022-08-11T17:15:02.079Z,25.31
2022-08-11T17:17:40.607Z,25.29
2022-08-11T17:20:38.595Z,25.27
2022-08-11T17:23:32.091Z,25.26
2022-08-11T17:26:04.772Z,25.24
2022-08-11T17:28:38.028Z,25.21
2022-08-11T17:31:26.312Z,25.18
2022-08-11T17:34:15.803Z,25.13
2022-08-11T17:36:46.248Z,25.09
2022-08-11T17:39:17.780Z,25.05
2022-08-11T17:42:38.012Z,25.01
2022-08-11T17:45:27.805Z,24.97
2022-08-11T17:48:29.193Z,24.95
2022-08-11T17:51:06.989Z,24.93
2022-08-11T17:54:18.067Z,24.91
2022-08-11T17:57:21.009Z,24.87
2022-08-11T17:59:57.449Z,24.85
2022-08-11T18:02:52.094Z,24.81
2022-08-11T18:05:27.353Z,24.80
2022-08-11T18:08:19.388Z,24.78
2022-08-11T18:11:07.843Z,24.75
2022-08-11T18:14:00.060Z,24.73
2022-08-11T18:16:48.858Z,24.70
2022-08-11T18:19:36.659Z,24.67
2022-08-11T18:22:39.620Z,24.65
2022-08-11T18:25:43.350Z,24.61
2022-08-11T18:28:36.145Z,24.58
2022-08-11T18:31:26.550Z,24.56
2022-08-11T18:34:26.001Z,24.52
2022-08-11T18:37:29.307Z,24.49
2022-08-11T18:40:47.610Z,24.44
2022-08-11T18:45:01.461Z,24.41
2022-08-11T18:52:13.386Z,24.29
2022-08-11T18:55:27.634Z,24.25
2022-08-11T18:58:23.626Z,24.21
2022-08-11T19:06:32.467Z,24.12
2022-08-11T19:09:15.897Z,24.08
2022-08-11T19:12:19.449Z,24.03
2022-08-11T19:15:12.183Z,24.00
2022-08-11T19:18:22.156Z,23.96
2022-08-11T19:21:12.453Z,23.93
2022-08-11T19:24:09.246Z,23.89
2022-08-11T19:26:58.740Z,23.85
2022-08-11T19:30:04.690Z,23.82
2022-08-11T19:33:00.874Z,23.78
2022-08-11T19:35:52.661Z,23.74
2022-08-11T19:38:40.742Z,23.70
2022-08-11T19:41:56.530Z,23.65
2022-08-11T19:44:41.649Z,23.60
2022-08-11T19:47:31.909Z,23.56
2022-08-11T19:50:38.889Z,23.52
2022-08-11T19:53:32.214Z,23.49
2022-08-11T19:56:20.437Z,23.45
2022-08-11T19:59:10.330Z,23.42
2022-08-11T20:02:13.488Z,23.38
2022-08-11T20:05:02.551Z,23.33
2022-08-11T20:07:52.380Z,23.29
2022-08-11T20:10:41.235Z,23.25
2022-08-11T20:13:30.765Z,23.21
2022-08-11T20:16:21.038Z,23.17
2022-08-11T20:19:11.024Z,23.14
2022-08-11T20:22:05.961Z,23.10
2022-08-11T20:24:57.753Z,23.07
2022-08-11T20:27:51.263Z,23.03
2022-08-11T20:30:45.191Z,22.99
2022-08-11T20:33:34.437Z,22.95
2022-08-11T20:36:23.496Z,22.91
2022-08-11T20:39:13.152Z,22.87
2022-08-11T20:42:02.132Z,22.82
2022-08-11T20:45:02.950Z,22.77
2022-08-11T20:47:59.404Z,22.72
2022-08-11T20:50:50.588Z,22.67
2022-08-11T20:54:13.697Z,22.64
2022-08-11T20:57:12.693Z,22.59
2022-08-11T21:00:05.008Z,22.54
2022-08-11T21:03:36.081Z,22.50
2022-08-11T21:06:33.114Z,22.46
2022-08-11T21:09:25.064Z,22.43
2022-08-11T21:12:50.535Z,22.38
2022-08-11T21:16:02.838Z,22.33
2022-08-11T21:19:11.037Z,22.29
2022-08-11T21:22:03.960Z,22.25
2022-08-11T21:24:53.523Z,22.22
2022-08-11T21:27:45.189Z,22.19
2022-08-11T21:30:33.086Z,22.16
2022-08-11T21:33:22.338Z,22.12
2022-08-11T21:36:43.776Z,22.08
2022-08-11T21:39:41.107Z,22.04
2022-08-11T21:42:30.710Z,21.99
2022-08-11T21:45:19.121Z,21.96
2022-08-11T21:48:09.120Z,21.91
2022-08-11T21:51:05.655Z,21.87
2022-08-11T21:53:54.638Z,21.83
2022-08-11T21:56:46.469Z,21.79
2022-08-11T21:59:41.646Z,21.76
2022-08-11T22:02:29.369Z,21.72
2022-08-11T22:05:17.320Z,21.66
2022-08-11T22:08:05.707Z,21.62
2022-08-11T22:10:53.734Z,21.56
2022-08-11T22:13:41.555Z,21.52
2022-08-11T22:16:49.336Z,21.46
2022-08-11T22:19:38.192Z,21.42
2022-08-11T22:22:27.398Z,21.36
2022-08-11T22:25:16.655Z,21.33
2022-08-11T22:28:06.496Z,21.27
2022-08-11T22:30:54.405Z,21.23
2022-08-11T22:34:00.114Z,21.20
2022-08-11T22:36:54.277Z,21.16
2022-08-11T22:39:44.259Z,21.13
2022-08-11T22:42:33.445Z,21.11
2022-08-11T22:45:21.738Z,21.07
2022-08-11T22:48:10.608Z,21.02
2022-08-11T22:50:59.549Z,20.99
2022-08-11T22:53:57.632Z,20.95
2022-08-11T22:56:48.797Z,20.92
2022-08-11T22:59:39.692Z,20.89
2022-08-11T23:02:28.169Z,20.85
2022-08-11T23:05:20.254Z,20.82
2022-08-11T23:08:08.938Z,20.79
2022-08-11T23:10:57.996Z,20.75
2022-08-11T23:13:48.000Z,20.72
2022-08-11T23:16:37.868Z,20.69
2022-08-11T23:20:00.340Z,20.64
2022-08-11T23:22:43.743Z,20.55
2022-08-11T23:25:41.126Z,20.50
2022-08-11T23:28:33.255Z,20.47
2022-08-11T23:31:21.777Z,20.43
2022-08-11T23:34:41.540Z,20.40
2022-08-11T23:37:21.755Z,20.36
2022-08-11T23:40:10.333Z,20.34
2022-08-11T23:42:59.210Z,20.30
2022-08-11T23:45:46.818Z,20.26
2022-08-11T23:48:35.637Z,20.22
2022-08-11T23:51:25.177Z,20.17
2022-08-11T23:54:32.656Z,20.12
2022-08-11T23:57:24.749Z,20.07
